createdAt,value
2016-08-14T00:00:03.846Z,0
2016-08-14T00:01:04.559Z,0
2016-08-14T00:02:18.816Z,0
2016-08-14T00:03:04.633Z,0
2016-08-14T00:04:03.947Z,0
2016-08-14T00:05:03.974Z,0
2016-08-14T00:06:04.015Z,0
2016-08-14T00:07:04.026Z,0
2016-08-14T00:08:04.058Z,0
2016-08-14T00:09:04.101Z,0
2016-08-14T00:10:04.114Z,0
2016-08-14T00:11:04.131Z,0
2016-08-14T00:12:19.080Z,0
2016-08-14T00:13:04.183Z,0
2016-08-14T00:14:04.218Z,0
2016-08-14T00:15:04.942Z,0
2016-08-14T00:16:04.265Z,0
2016-08-14T00:17:04.295Z,0
2016-08-14T00:18:04.331Z,0
2016-08-14T00:19:19.279Z,0
2016-08-14T00:20:04.378Z,0
2016-08-14T00:21:04.405Z,0
2016-08-14T00:22:19.365Z,0
2016-08-14T00:23:04.456Z,0
2016-08-14T00:24:04.481Z,0
2016-08-14T00:25:04.525Z,0
2016-08-14T00:26:04.538Z,0
2016-08-14T00:27:04.575Z,0
2016-08-14T00:28:19.520Z,0
2016-08-14T00:29:19.537Z,0
2016-08-14T00:30:04.650Z,0
2016-08-14T00:31:04.678Z,0
2016-08-14T00:32:04.706Z,0
2016-08-14T00:33:04.729Z,0
2016-08-14T00:34:04.756Z,0
2016-08-14T00:35:05.481Z,0
2016-08-14T00:36:04.807Z,0
2016-08-14T00:37:04.835Z,0
2016-08-14T00:39:04.883Z,0
2016-08-14T00:40:19.839Z,0
2016-08-14T00:41:19.853Z,0
2016-08-14T00:42:19.896Z,0
2016-08-14T00:43:19.909Z,0
2016-08-14T00:45:05.066Z,0
2016-08-14T00:46:05.070Z,0
2016-08-14T00:47:05.097Z,0
2016-08-14T00:48:05.863Z,0
2016-08-14T00:49:05.141Z,0
2016-08-14T00:50:05.278Z,0
2016-08-14T00:51:05.203Z,0
2016-08-14T00:52:05.232Z,0
2016-08-14T00:53:05.271Z,0
2016-08-14T00:55:05.308Z,0
2016-08-14T00:56:05.346Z,0
2016-08-14T00:57:05.416Z,0
2016-08-14T00:58:05.388Z,0
2016-08-14T00:59:05.419Z,0
2016-08-14T01:00:05.443Z,0
2016-08-14T01:01:05.478Z,0
2016-08-14T01:02:05.493Z,0
2016-08-14T01:03:05.526Z,0
2016-08-14T01:04:05.551Z,0
2016-08-14T01:05:06.270Z,0
2016-08-14T01:06:05.603Z,0
2016-08-14T01:07:05.634Z,0
2016-08-14T01:08:05.654Z,0
2016-08-14T01:09:05.684Z,0
2016-08-14T01:10:06.417Z,0
2016-08-14T01:11:05.739Z,0
2016-08-14T01:12:05.767Z,0
2016-08-14T01:13:05.785Z,0
2016-08-14T01:14:05.816Z,0
2016-08-14T01:15:20.774Z,0
2016-08-14T01:16:05.869Z,0
2016-08-14T01:17:05.899Z,0
2016-08-14T01:18:05.924Z,0
2016-08-14T01:19:05.952Z,0
2016-08-14T01:20:05.975Z,0
2016-08-14T01:21:06.002Z,0
2016-08-14T01:22:06.025Z,0
2016-08-14T01:24:06.085Z,0
2016-08-14T01:26:06.138Z,0
2016-08-14T01:27:06.169Z,0
2016-08-14T01:28:06.189Z,0
2016-08-14T01:29:06.211Z,0
2016-08-14T01:30:06.244Z,0
2016-08-14T01:31:21.192Z,0
2016-08-14T01:32:06.309Z,0
2016-08-14T01:35:06.385Z,0
2016-08-14T01:36:06.399Z,0
2016-08-14T01:37:06.426Z,0
2016-08-14T01:38:06.453Z,0
2016-08-14T01:39:06.486Z,0
2016-08-14T01:40:06.505Z,0
2016-08-14T01:41:21.466Z,0
2016-08-14T01:42:21.481Z,0
2016-08-14T01:43:21.516Z,0
2016-08-14T01:44:06.620Z,0
2016-08-14T01:45:21.564Z,0
2016-08-14T01:46:06.672Z,0
2016-08-14T01:47:21.613Z,0
2016-08-14T01:48:06.725Z,0
2016-08-14T01:49:06.755Z,0
2016-08-14T01:50:06.776Z,0
2016-08-14T01:51:06.805Z,0
2016-08-14T01:52:06.837Z,0
2016-08-14T01:53:21.775Z,0
2016-08-14T01:54:06.893Z,0
2016-08-14T01:55:06.913Z,0
2016-08-14T01:56:21.912Z,0
2016-08-14T01:57:07.671Z,0
2016-08-14T01:58:07.050Z,0
2016-08-14T01:59:07.004Z,0
2016-08-14T02:00:21.973Z,0
2016-08-14T02:01:07.083Z,0
2016-08-14T02:03:22.045Z,0
2016-08-14T02:04:22.063Z,0
2016-08-14T02:05:08.576Z,0
2016-08-14T02:06:07.198Z,0
2016-08-14T02:07:07.227Z,0
2016-08-14T02:08:07.249Z,0
2016-08-14T02:09:07.272Z,0
2016-08-14T02:10:08.052Z,0
2016-08-14T02:11:22.249Z,0
2016-08-14T02:12:22.294Z,0
2016-08-14T02:13:08.088Z,0
2016-08-14T02:14:07.406Z,0
2016-08-14T02:15:07.436Z,0
2016-08-14T02:16:22.389Z,0
2016-08-14T02:17:07.491Z,0
2016-08-14T02:18:22.436Z,0
2016-08-14T02:19:07.539Z,0
2016-08-14T02:20:22.487Z,0
2016-08-14T02:21:07.592Z,0
2016-08-14T02:22:07.615Z,0
2016-08-14T02:23:22.567Z,0
2016-08-14T02:24:07.669Z,0
2016-08-14T02:25:22.622Z,0
2016-08-14T02:26:07.723Z,0
2016-08-14T02:27:07.748Z,0
2016-08-14T02:28:07.777Z,0
2016-08-14T02:29:07.816Z,0
2016-08-14T02:30:07.834Z,0
2016-08-14T02:31:07.856Z,0
2016-08-14T02:32:08.586Z,0
2016-08-14T02:33:07.916Z,0
2016-08-14T02:34:07.934Z,0
2016-08-14T02:35:07.962Z,0
2016-08-14T02:36:07.988Z,0
2016-08-14T02:37:08.020Z,0
2016-08-14T02:38:08.038Z,0
2016-08-14T02:39:08.061Z,0
2016-08-14T02:40:08.085Z,0
2016-08-14T02:41:08.130Z,0
2016-08-14T02:42:08.147Z,0
2016-08-14T02:43:08.171Z,0
2016-08-14T02:45:08.235Z,0
2016-08-14T02:46:08.264Z,0
2016-08-14T02:47:23.205Z,0
2016-08-14T02:48:08.304Z,0
2016-08-14T02:49:08.330Z,0
2016-08-14T02:50:23.276Z,0
2016-08-14T02:51:08.386Z,0
2016-08-14T02:52:09.809Z,0
2016-08-14T02:53:08.443Z,0
2016-08-14T02:54:08.468Z,0
2016-08-14T02:55:08.486Z,0
2016-08-14T02:56:08.518Z,0
2016-08-14T02:57:08.583Z,0
2016-08-14T02:58:08.575Z,0
2016-08-14T02:59:08.605Z,0
2016-08-14T03:00:08.677Z,0
2016-08-14T03:01:08.647Z,0
2016-08-14T03:03:08.703Z,0
2016-08-14T03:04:23.657Z,0
2016-08-14T03:05:08.807Z,0
2016-08-14T03:06:38.629Z,0
2016-08-14T03:07:08.812Z,0
2016-08-14T03:09:08.857Z,0
2016-08-14T03:10:08.892Z,0
2016-08-14T03:11:08.908Z,0
2016-08-14T03:12:08.936Z,0
2016-08-14T03:13:09.018Z,0
2016-08-14T03:14:08.984Z,0
2016-08-14T03:15:09.037Z,0
2016-08-14T03:16:09.042Z,0
2016-08-14T03:18:09.130Z,0
2016-08-14T03:19:09.115Z,0
2016-08-14T03:20:24.080Z,0
2016-08-14T03:21:09.179Z,0
2016-08-14T03:22:24.121Z,0
2016-08-14T03:23:24.155Z,0
2016-08-14T03:24:09.247Z,0
2016-08-14T03:25:09.294Z,0
2016-08-14T03:26:09.301Z,0
2016-08-14T03:27:24.260Z,0
2016-08-14T03:28:24.292Z,0
2016-08-14T03:29:09.387Z,0
2016-08-14T03:30:09.409Z,0
2016-08-14T03:31:09.447Z,0
2016-08-14T03:32:09.470Z,0
2016-08-14T03:33:10.195Z,0
2016-08-14T03:34:09.541Z,0
2016-08-14T03:35:09.537Z,0
2016-08-14T03:36:09.576Z,0
2016-08-14T03:37:24.529Z,0
2016-08-14T03:38:24.548Z,0
2016-08-14T03:39:09.650Z,0
2016-08-14T03:40:24.603Z,0
2016-08-14T03:41:09.700Z,0
2016-08-14T03:42:09.726Z,0
2016-08-14T03:43:09.753Z,0
2016-08-14T03:44:09.783Z,0
2016-08-14T03:45:09.809Z,0
2016-08-14T03:46:09.832Z,0
2016-08-14T03:47:09.866Z,0
2016-08-14T03:48:09.881Z,0
2016-08-14T03:49:09.902Z,0
2016-08-14T03:50:24.864Z,0
2016-08-14T03:51:09.974Z,0
2016-08-14T03:52:09.987Z,0
2016-08-14T03:53:39.869Z,0
2016-08-14T03:54:10.056Z,0
2016-08-14T03:55:10.078Z,0
2016-08-14T03:56:10.107Z,0
2016-08-14T03:57:10.132Z,0
2016-08-14T03:58:10.144Z,0
2016-08-14T03:59:25.152Z,0
2016-08-14T04:00:25.127Z,0
2016-08-14T04:01:25.157Z,0
2016-08-14T04:03:10.283Z,0
2016-08-14T04:04:10.301Z,0
2016-08-14T04:05:10.333Z,0
2016-08-14T04:06:10.368Z,0
2016-08-14T04:07:25.314Z,0
2016-08-14T04:08:25.337Z,0
2016-08-14T04:09:25.378Z,0
2016-08-14T04:10:40.314Z,0
2016-08-14T04:11:10.493Z,0
2016-08-14T04:12:10.515Z,5
2016-08-14T04:13:10.597Z,5
2016-08-14T04:14:10.587Z,5
2016-08-14T04:15:10.606Z,5
2016-08-14T04:16:10.620Z,5
2016-08-14T04:17:10.644Z,5
2016-08-14T04:18:10.701Z,5
2016-08-14T04:19:10.713Z,5
2016-08-14T04:20:10.730Z,5
2016-08-14T04:21:10.763Z,5
2016-08-14T04:22:10.776Z,5
2016-08-14T04:23:11.520Z,5
2016-08-14T04:24:11.541Z,5
2016-08-14T04:25:25.790Z,5
2016-08-14T04:26:10.893Z,5
2016-08-14T04:27:10.921Z,5
2016-08-14T04:28:25.876Z,5
2016-08-14T04:29:10.974Z,5
2016-08-14T04:30:10.995Z,5
2016-08-14T04:31:11.723Z,10
2016-08-14T04:32:11.049Z,10
2016-08-14T04:33:11.083Z,10
2016-08-14T04:34:11.104Z,15
2016-08-14T04:35:11.819Z,15
2016-08-14T04:36:11.158Z,20
2016-08-14T04:37:11.171Z,25
2016-08-14T04:38:11.199Z,30
2016-08-14T04:39:11.230Z,30
2016-08-14T04:40:11.256Z,40
2016-08-14T04:41:41.132Z,30
2016-08-14T04:42:11.315Z,30
2016-08-14T04:43:12.028Z,30
2016-08-14T04:44:11.358Z,35
2016-08-14T04:45:12.112Z,45
2016-08-14T04:46:12.115Z,50
2016-08-14T04:47:11.443Z,45
2016-08-14T04:48:11.471Z,45
2016-08-14T04:49:11.497Z,50
2016-08-14T04:50:11.514Z,45
2016-08-14T04:51:11.564Z,45
2016-08-14T04:52:12.270Z,45
2016-08-14T04:53:11.593Z,45
2016-08-14T04:54:11.636Z,50
2016-08-14T04:55:26.576Z,55
2016-08-14T04:56:11.686Z,60
2016-08-14T04:57:26.623Z,80
2016-08-14T04:58:11.728Z,85
2016-08-14T04:59:11.754Z,100
2016-08-14T05:00:11.785Z,115
2016-08-14T05:01:11.860Z,145
2016-08-14T05:02:26.780Z,165
2016-08-14T05:03:27.486Z,365
2016-08-14T05:05:12.621Z,635
2016-08-14T05:06:11.945Z,690
2016-08-14T05:07:12.023Z,765
2016-08-14T05:08:12.002Z,680
2016-08-14T05:09:12.025Z,675
2016-08-14T05:10:12.053Z,745
2016-08-14T05:11:12.081Z,840
2016-08-14T05:12:12.170Z,840
2016-08-14T05:13:41.986Z,800
2016-08-14T05:14:12.173Z,775
2016-08-14T05:16:12.222Z,440
2016-08-14T05:17:12.252Z,235
2016-08-14T05:18:12.283Z,560
2016-08-14T05:19:12.309Z,335
2016-08-14T05:20:12.344Z,180
2016-08-14T05:21:12.366Z,160
2016-08-14T05:22:27.333Z,160
2016-08-14T05:23:27.363Z,155
2016-08-14T05:24:12.458Z,145
2016-08-14T05:25:12.500Z,140
2016-08-14T05:26:27.449Z,135
2016-08-14T05:27:12.541Z,140
2016-08-14T05:28:27.526Z,150
2016-08-14T05:29:12.626Z,150
2016-08-14T05:30:27.556Z,140
2016-08-14T05:31:12.670Z,140
2016-08-14T05:32:12.692Z,145
2016-08-14T05:33:12.711Z,150
2016-08-14T05:34:12.765Z,165
2016-08-14T05:35:12.777Z,215
2016-08-14T05:36:27.740Z,1005
2016-08-14T05:37:12.836Z,760
2016-08-14T05:38:13.565Z,1040
2016-08-14T05:39:12.906Z,1075
2016-08-14T05:40:12.929Z,1100
2016-08-14T05:41:12.947Z,1140
2016-08-14T05:42:27.916Z,1180
2016-08-14T05:43:27.947Z,1100
2016-08-14T05:44:13.038Z,1150
2016-08-14T05:45:13.075Z,1070
2016-08-14T05:46:13.104Z,975
2016-08-14T05:47:13.134Z,515
2016-08-14T05:48:13.175Z,740
2016-08-14T05:49:13.212Z,305
2016-08-14T05:50:13.929Z,280
2016-08-14T05:51:13.974Z,250
2016-08-14T05:52:13.289Z,230
2016-08-14T05:53:13.325Z,215
2016-08-14T05:54:13.363Z,235
2016-08-14T05:55:13.394Z,400
2016-08-14T05:56:13.421Z,545
2016-08-14T05:57:13.455Z,815
2016-08-14T05:58:13.481Z,715
2016-08-14T05:59:13.504Z,1050
2016-08-14T06:00:28.474Z,1050
2016-08-14T06:01:13.584Z,945
2016-08-14T06:02:28.543Z,835
2016-08-14T06:04:13.675Z,1075
2016-08-14T06:05:14.401Z,285
2016-08-14T06:06:13.738Z,1030
2016-08-14T06:07:13.814Z,290
2016-08-14T06:08:13.805Z,1195
2016-08-14T06:09:13.834Z,300
2016-08-14T06:10:13.852Z,280
2016-08-14T06:11:13.885Z,260
2016-08-14T06:12:14.618Z,740
2016-08-14T06:13:14.017Z,835
2016-08-14T06:14:13.999Z,615
2016-08-14T06:15:14.069Z,740
2016-08-14T06:16:29.041Z,565
2016-08-14T06:17:29.007Z,935
2016-08-14T06:18:14.116Z,1010
2016-08-14T06:19:14.155Z,1135
2016-08-14T06:20:14.203Z,1165
2016-08-14T06:21:14.210Z,595
2016-08-14T06:22:14.257Z,1090
2016-08-14T06:23:14.279Z,875
2016-08-14T06:24:14.321Z,305
2016-08-14T06:25:14.359Z,475
2016-08-14T06:27:14.409Z,1090
2016-08-14T06:28:14.449Z,1180
2016-08-14T06:29:29.409Z,440
2016-08-14T06:30:14.519Z,965
2016-08-14T06:31:14.566Z,940
2016-08-14T06:32:29.499Z,925
2016-08-14T06:33:14.613Z,925
2016-08-14T06:34:29.572Z,810
2016-08-14T06:35:14.678Z,1060
2016-08-14T06:36:29.641Z,1085
2016-08-14T06:37:14.751Z,1090
2016-08-14T06:38:14.782Z,1130
2016-08-14T06:39:14.824Z,1045
2016-08-14T06:40:14.865Z,875
2016-08-14T06:41:14.886Z,435
2016-08-14T06:42:14.923Z,1045
2016-08-14T06:43:14.948Z,860
2016-08-14T06:44:14.985Z,385
2016-08-14T06:45:15.020Z,325
2016-08-14T06:46:15.058Z,285
2016-08-14T06:47:15.083Z,275
2016-08-14T06:48:30.046Z,310
2016-08-14T06:49:15.159Z,635
2016-08-14T06:51:15.223Z,395
2016-08-14T06:52:15.278Z,405
2016-08-14T06:53:15.983Z,580
2016-08-14T06:54:15.323Z,535
2016-08-14T06:55:15.361Z,610
2016-08-14T06:57:15.424Z,415
2016-08-14T06:58:15.468Z,320
2016-08-14T06:59:15.488Z,450
2016-08-14T07:00:30.451Z,515
2016-08-14T07:01:15.567Z,630
2016-08-14T07:02:15.597Z,1525
2016-08-14T07:03:30.546Z,825
2016-08-14T07:04:15.673Z,1155
2016-08-14T07:05:15.689Z,430
2016-08-14T07:06:15.740Z,470
2016-08-14T07:07:15.760Z,695
2016-08-14T07:08:15.801Z,1000
2016-08-14T07:09:15.845Z,385
2016-08-14T07:10:16.220Z,380
2016-08-14T07:11:15.893Z,595
2016-08-14T07:12:15.935Z,445
2016-08-14T07:13:30.894Z,435
2016-08-14T07:14:15.992Z,655
2016-08-14T07:15:31.004Z,585
2016-08-14T07:16:16.116Z,470
2016-08-14T07:17:16.113Z,615
2016-08-14T07:18:16.141Z,395
2016-08-14T07:19:16.154Z,420
2016-08-14T07:21:31.149Z,1360
2016-08-14T07:22:16.314Z,1290
2016-08-14T07:23:16.296Z,360
2016-08-14T07:24:31.256Z,370
2016-08-14T07:25:16.370Z,755
2016-08-14T07:26:16.391Z,410
2016-08-14T07:27:16.427Z,920
2016-08-14T07:29:16.491Z,1035
2016-08-14T07:30:31.454Z,405
2016-08-14T07:32:16.591Z,895
2016-08-14T07:33:16.772Z,575
2016-08-14T07:34:31.582Z,915
2016-08-14T07:35:31.612Z,1495
2016-08-14T07:36:17.416Z,525
2016-08-14T07:37:31.674Z,405
2016-08-14T07:38:16.790Z,365
2016-08-14T07:40:16.855Z,495
2016-08-14T07:41:16.898Z,445
2016-08-14T07:42:16.914Z,460
2016-08-14T07:43:16.948Z,285
2016-08-14T07:44:17.680Z,345
2016-08-14T07:45:17.013Z,1020
2016-08-14T07:46:31.983Z,390
2016-08-14T07:47:46.938Z,980
2016-08-14T07:48:32.047Z,1165
2016-08-14T07:49:17.142Z,740
2016-08-14T07:50:17.182Z,970
2016-08-14T07:51:32.146Z,1170
2016-08-14T07:52:17.256Z,1230
2016-08-14T07:53:32.203Z,895
2016-08-14T07:54:32.238Z,1160
2016-08-14T07:55:17.341Z,395
2016-08-14T07:56:18.081Z,340
2016-08-14T07:57:17.415Z,380
2016-08-14T07:58:17.442Z,1095
2016-08-14T07:59:17.476Z,1200
2016-08-14T08:00:32.432Z,525
2016-08-14T08:01:17.536Z,535
2016-08-14T08:02:17.586Z,420
2016-08-14T08:03:17.609Z,320
2016-08-14T08:04:17.644Z,350
2016-08-14T08:05:32.606Z,255
2016-08-14T08:06:17.721Z,565
2016-08-14T08:07:32.676Z,1090
2016-08-14T08:08:17.769Z,390
2016-08-14T08:09:17.812Z,1125
2016-08-14T08:10:17.850Z,655
2016-08-14T08:11:17.880Z,665
2016-08-14T08:12:17.918Z,640
2016-08-14T08:13:17.938Z,335
2016-08-14T08:14:17.972Z,335
2016-08-14T08:15:18.019Z,770
2016-08-14T08:16:18.102Z,1050
2016-08-14T08:17:32.999Z,490
2016-08-14T08:18:18.146Z,715
2016-08-14T08:19:18.195Z,960
2016-08-14T08:20:18.178Z,485
2016-08-14T08:21:18.216Z,450
2016-08-14T08:22:18.248Z,650
2016-08-14T08:23:33.200Z,765
2016-08-14T08:24:18.314Z,465
2016-08-14T08:25:18.346Z,410
2016-08-14T08:26:18.427Z,360
2016-08-14T08:27:18.412Z,815
2016-08-14T08:28:33.372Z,650
2016-08-14T08:29:33.403Z,300
2016-08-14T08:30:33.438Z,755
2016-08-14T08:31:18.553Z,475
2016-08-14T08:32:18.576Z,440
2016-08-14T08:33:18.611Z,270
2016-08-14T08:34:18.644Z,250
2016-08-14T08:35:18.683Z,240
2016-08-14T08:36:33.636Z,280
2016-08-14T08:37:33.663Z,410
2016-08-14T08:38:48.628Z,465
2016-08-14T08:39:48.661Z,330
2016-08-14T08:40:33.772Z,280
2016-08-14T08:41:33.798Z,305
2016-08-14T08:42:18.930Z,340
2016-08-14T08:43:18.950Z,440
2016-08-14T08:44:18.968Z,465
2016-08-14T08:45:19.028Z,315
2016-08-14T08:46:19.033Z,375
2016-08-14T08:47:33.995Z,545
2016-08-14T08:48:19.110Z,515
2016-08-14T08:49:19.147Z,325
2016-08-14T08:50:19.183Z,390
2016-08-14T08:51:19.209Z,245
2016-08-14T08:52:19.244Z,215
2016-08-14T08:53:19.286Z,200
2016-08-14T08:54:19.316Z,190
2016-08-14T08:55:20.023Z,170
2016-08-14T08:56:19.360Z,165
2016-08-14T08:57:19.397Z,175
2016-08-14T08:58:19.447Z,185
2016-08-14T08:59:34.394Z,200
2016-08-14T09:00:19.502Z,200
2016-08-14T09:01:34.460Z,215
2016-08-14T09:02:34.497Z,235
2016-08-14T09:03:19.596Z,330
2016-08-14T09:04:19.626Z,300
2016-08-14T09:05:19.651Z,350
2016-08-14T09:07:19.727Z,395
2016-08-14T09:08:34.673Z,470
2016-08-14T09:09:19.790Z,615
2016-08-14T09:10:34.748Z,430
2016-08-14T09:11:19.850Z,415
2016-08-14T09:12:19.878Z,370
2016-08-14T09:13:19.917Z,365
2016-08-14T09:14:19.944Z,390
2016-08-14T09:15:19.968Z,370
2016-08-14T09:16:20.005Z,370
2016-08-14T09:17:34.977Z,375
2016-08-14T09:18:20.067Z,345
2016-08-14T09:19:20.099Z,470
2016-08-14T09:20:20.128Z,365
2016-08-14T09:21:35.087Z,325
2016-08-14T09:22:20.208Z,320
2016-08-14T09:23:20.225Z,315
2016-08-14T09:24:50.117Z,355
2016-08-14T09:25:20.354Z,360
2016-08-14T09:26:35.912Z,360
2016-08-14T09:27:20.357Z,310
2016-08-14T09:28:35.317Z,345
2016-08-14T09:29:20.430Z,330
2016-08-14T09:30:20.450Z,415
2016-08-14T09:31:20.497Z,320
2016-08-14T09:32:20.521Z,410
2016-08-14T09:34:20.576Z,375
2016-08-14T09:35:20.618Z,300
2016-08-14T09:36:35.582Z,375
2016-08-14T09:37:20.677Z,375
2016-08-14T09:38:20.718Z,340
2016-08-14T09:39:35.678Z,410
2016-08-14T09:40:20.778Z,410
2016-08-14T09:41:35.736Z,410
2016-08-14T09:42:35.765Z,290
2016-08-14T09:43:35.796Z,405
2016-08-14T09:44:35.823Z,335
2016-08-14T09:45:20.936Z,310
2016-08-14T09:46:20.980Z,395
2016-08-14T09:47:20.999Z,360
2016-08-14T09:48:21.036Z,350
2016-08-14T09:49:21.064Z,320
2016-08-14T09:50:21.084Z,375
2016-08-14T09:51:21.130Z,295
2016-08-14T09:52:36.094Z,395
2016-08-14T09:53:36.125Z,300
2016-08-14T09:54:21.232Z,335
2016-08-14T09:55:36.187Z,270
2016-08-14T09:56:21.293Z,315
2016-08-14T09:57:21.324Z,250
2016-08-14T09:58:36.281Z,310
2016-08-14T09:59:36.314Z,340
2016-08-14T10:00:21.424Z,365
2016-08-14T10:01:21.466Z,370
2016-08-14T10:02:21.487Z,245
2016-08-14T10:03:36.444Z,350
2016-08-14T10:04:21.551Z,360
2016-08-14T10:05:21.593Z,345
2016-08-14T10:06:21.617Z,355
2016-08-14T10:07:36.570Z,330
2016-08-14T10:08:21.682Z,345
2016-08-14T10:09:21.713Z,360
2016-08-14T10:10:21.752Z,375
2016-08-14T10:11:21.781Z,390
2016-08-14T10:12:21.815Z,370
2016-08-14T10:13:36.760Z,345
2016-08-14T10:14:36.796Z,330
2016-08-14T10:15:37.535Z,330
2016-08-14T10:16:22.630Z,330
2016-08-14T10:17:36.893Z,320
2016-08-14T10:18:22.703Z,330
2016-08-14T10:19:22.036Z,330
2016-08-14T10:20:37.078Z,260
2016-08-14T10:21:22.120Z,300
2016-08-14T10:22:22.145Z,250
2016-08-14T10:23:37.099Z,300
2016-08-14T10:24:37.185Z,310
2016-08-14T10:25:22.289Z,320
2016-08-14T10:26:22.269Z,305
2016-08-14T10:27:22.296Z,305
2016-08-14T10:28:22.338Z,230
2016-08-14T10:29:22.423Z,225
2016-08-14T10:30:22.398Z,230
2016-08-14T10:31:22.480Z,290
2016-08-14T10:32:22.467Z,280
2016-08-14T10:33:22.493Z,225
2016-08-14T10:34:22.543Z,220
2016-08-14T10:35:22.561Z,210
2016-08-14T10:36:37.517Z,200
2016-08-14T10:37:22.613Z,195
2016-08-14T10:38:23.354Z,175
2016-08-14T10:39:22.701Z,160
2016-08-14T10:40:22.728Z,155
2016-08-14T10:41:23.442Z,145
2016-08-14T10:42:37.708Z,140
2016-08-14T10:43:22.801Z,140
2016-08-14T10:44:22.842Z,140
2016-08-14T10:45:52.723Z,140
2016-08-14T10:46:22.910Z,135
2016-08-14T10:47:22.956Z,135
2016-08-14T10:49:23.002Z,140
2016-08-14T10:51:38.673Z,165
2016-08-14T10:52:23.088Z,175
2016-08-14T10:53:23.115Z,185
2016-08-14T10:54:38.074Z,195
2016-08-14T10:55:23.191Z,240
2016-08-14T10:56:23.210Z,220
2016-08-14T10:58:38.198Z,260
2016-08-14T10:59:38.226Z,260
2016-08-14T11:00:38.259Z,255
2016-08-14T11:01:38.304Z,260
2016-08-14T11:02:23.394Z,265
2016-08-14T11:03:23.437Z,265
2016-08-14T11:04:23.458Z,270
2016-08-14T11:05:38.423Z,270
2016-08-14T11:06:23.518Z,270
2016-08-14T11:07:24.262Z,250
2016-08-14T11:08:23.576Z,250
2016-08-14T11:09:23.614Z,245
2016-08-14T11:10:38.587Z,255
2016-08-14T11:11:23.672Z,255
2016-08-14T11:12:23.712Z,250
2016-08-14T11:13:23.740Z,250
2016-08-14T11:14:23.785Z,245
2016-08-14T11:15:23.797Z,240
2016-08-14T11:16:23.837Z,260
2016-08-14T11:17:38.785Z,260
2016-08-14T11:18:38.811Z,260
2016-08-14T11:19:23.921Z,255
2016-08-14T11:20:23.967Z,250
2016-08-14T11:21:23.983Z,245
2016-08-14T11:22:24.052Z,240
2016-08-14T11:23:24.741Z,230
2016-08-14T11:24:24.077Z,220
2016-08-14T11:25:24.248Z,220
2016-08-14T11:26:24.131Z,215
2016-08-14T11:27:24.168Z,210
2016-08-14T11:28:24.212Z,205
2016-08-14T11:29:24.243Z,205
2016-08-14T11:30:39.190Z,230
2016-08-14T11:31:24.338Z,210
2016-08-14T11:32:24.476Z,205
2016-08-14T11:33:39.283Z,200
2016-08-14T11:34:24.439Z,205
2016-08-14T11:35:39.346Z,210
2016-08-14T11:36:24.445Z,210
2016-08-14T11:38:24.509Z,210
2016-08-14T11:39:24.546Z,215
2016-08-14T11:40:24.565Z,225
2016-08-14T11:41:25.294Z,240
2016-08-14T11:42:24.635Z,245
2016-08-14T11:43:24.653Z,240
2016-08-14T11:44:24.690Z,235
2016-08-14T11:45:24.727Z,215
2016-08-14T11:46:25.445Z,215
2016-08-14T11:47:24.786Z,215
2016-08-14T11:48:39.743Z,225
2016-08-14T11:49:39.770Z,230
2016-08-14T11:50:39.795Z,240
2016-08-14T11:51:25.607Z,235
2016-08-14T11:52:24.939Z,245
2016-08-14T11:53:24.964Z,215
2016-08-14T11:54:25.014Z,205
2016-08-14T11:55:39.956Z,200
2016-08-14T11:56:40.687Z,200
2016-08-14T11:57:25.090Z,200
2016-08-14T11:58:40.051Z,200
2016-08-14T11:59:25.151Z,200
2016-08-14T12:01:25.212Z,205
2016-08-14T12:02:25.253Z,210
2016-08-14T12:03:25.278Z,210
2016-08-14T12:04:25.319Z,210
2016-08-14T12:05:40.258Z,220
2016-08-14T12:06:25.368Z,230
2016-08-14T12:07:40.327Z,225
2016-08-14T12:08:25.424Z,220
2016-08-14T12:09:25.467Z,225
2016-08-14T12:10:25.499Z,255
2016-08-14T12:12:25.569Z,310
2016-08-14T12:13:25.587Z,265
2016-08-14T12:14:25.627Z,315
2016-08-14T12:15:25.648Z,280
2016-08-14T12:16:25.684Z,275
2016-08-14T12:17:25.717Z,295
2016-08-14T12:18:25.733Z,290
2016-08-14T12:19:25.768Z,255
2016-08-14T12:20:40.721Z,235
2016-08-14T12:21:40.755Z,215
2016-08-14T12:22:25.859Z,215
2016-08-14T12:23:25.894Z,240
2016-08-14T12:24:40.847Z,225
2016-08-14T12:25:25.948Z,225
2016-08-14T12:26:40.908Z,210
2016-08-14T12:27:26.009Z,200
2016-08-14T12:28:26.035Z,195
2016-08-14T12:29:26.081Z,190
2016-08-14T12:30:26.108Z,185
2016-08-14T12:31:26.144Z,180
2016-08-14T12:32:26.161Z,175
2016-08-14T12:33:26.890Z,170
2016-08-14T12:34:26.277Z,160
2016-08-14T12:35:26.267Z,155
2016-08-14T12:36:41.269Z,155
2016-08-14T12:37:27.036Z,155
2016-08-14T12:39:26.381Z,165
2016-08-14T12:40:26.435Z,170
2016-08-14T12:41:26.441Z,175
2016-08-14T12:42:26.477Z,200
2016-08-14T12:43:26.522Z,185
2016-08-14T12:44:27.241Z,185
2016-08-14T12:45:26.563Z,180
2016-08-14T12:46:41.516Z,185
2016-08-14T12:48:26.649Z,190
2016-08-14T12:49:26.689Z,185
2016-08-14T12:50:26.725Z,180
2016-08-14T12:51:41.674Z,175
2016-08-14T12:52:41.708Z,175
2016-08-14T12:53:26.804Z,175
2016-08-14T12:54:27.526Z,175
2016-08-14T12:55:26.866Z,185
2016-08-14T12:57:41.850Z,215
2016-08-14T12:58:26.956Z,195
2016-08-14T12:59:26.987Z,190
2016-08-14T13:00:27.721Z,190
2016-08-14T13:01:27.039Z,195
2016-08-14T13:02:27.080Z,215
2016-08-14T13:03:27.119Z,195
2016-08-14T13:04:42.064Z,180
2016-08-14T13:05:42.094Z,175
2016-08-14T13:06:27.196Z,170
2016-08-14T13:07:42.154Z,170
2016-08-14T13:08:42.178Z,175
2016-08-14T13:09:27.297Z,180
2016-08-14T13:12:27.373Z,180
2016-08-14T13:13:27.413Z,175
2016-08-14T13:14:42.362Z,175
2016-08-14T13:15:27.467Z,170
2016-08-14T13:16:27.497Z,160
2016-08-14T13:18:27.545Z,150
2016-08-14T13:19:42.533Z,150
2016-08-14T13:20:27.625Z,145
2016-08-14T13:21:42.566Z,140
2016-08-14T13:22:27.680Z,135
2016-08-14T13:23:42.638Z,130
2016-08-14T13:24:27.746Z,125
2016-08-14T13:25:42.685Z,120
2016-08-14T13:26:27.798Z,120
2016-08-14T13:27:27.841Z,120
2016-08-14T13:28:27.885Z,125
2016-08-14T13:29:27.894Z,150
2016-08-14T13:30:27.918Z,155
2016-08-14T13:31:27.959Z,175
2016-08-14T13:32:27.981Z,190
2016-08-14T13:33:28.010Z,190
2016-08-14T13:34:43.016Z,190
2016-08-14T13:35:28.084Z,195
2016-08-14T13:36:28.111Z,185
2016-08-14T13:37:43.049Z,175
2016-08-14T13:38:28.362Z,200
2016-08-14T13:39:28.186Z,165
2016-08-14T13:40:28.217Z,165
2016-08-14T13:41:43.166Z,165
2016-08-14T13:42:28.279Z,165
2016-08-14T13:43:28.312Z,165
2016-08-14T13:44:28.330Z,165
2016-08-14T13:45:28.364Z,165
2016-08-14T13:46:43.322Z,160
2016-08-14T13:47:28.417Z,160
2016-08-14T13:48:28.467Z,180
2016-08-14T13:49:28.485Z,180
2016-08-14T13:50:43.445Z,180
2016-08-14T13:51:28.544Z,185
2016-08-14T13:52:43.497Z,205
2016-08-14T13:53:28.600Z,200
2016-08-14T13:54:29.417Z,205
2016-08-14T13:55:43.601Z,200
2016-08-14T13:56:43.620Z,245
2016-08-14T13:57:28.727Z,205
2016-08-14T13:58:28.747Z,215
2016-08-14T13:59:28.791Z,220
2016-08-14T14:00:29.511Z,220
2016-08-14T14:01:28.835Z,205
2016-08-14T14:02:28.879Z,205
2016-08-14T14:03:28.914Z,220
2016-08-14T14:04:29.632Z,220
2016-08-14T14:05:28.951Z,195
2016-08-14T14:06:28.992Z,180
2016-08-14T14:07:29.030Z,175
2016-08-14T14:08:29.053Z,180
2016-08-14T14:09:29.091Z,175
2016-08-14T14:10:29.125Z,180
2016-08-14T14:11:44.060Z,180
2016-08-14T14:12:29.176Z,165
2016-08-14T14:13:29.190Z,160
2016-08-14T14:14:29.225Z,160
2016-08-14T14:15:29.257Z,155
2016-08-14T14:16:29.292Z,155
2016-08-14T14:17:30.016Z,155
2016-08-14T14:18:29.352Z,155
2016-08-14T14:19:29.383Z,150
2016-08-14T14:20:29.436Z,145
2016-08-14T14:21:29.444Z,140
2016-08-14T14:22:29.479Z,135
2016-08-14T14:23:29.510Z,140
2016-08-14T14:24:30.223Z,140
2016-08-14T14:25:29.557Z,140
2016-08-14T14:26:29.585Z,140
2016-08-14T14:27:44.545Z,135
2016-08-14T14:28:44.567Z,135
2016-08-14T14:29:44.610Z,135
2016-08-14T14:30:29.715Z,130
2016-08-14T14:31:29.747Z,130
2016-08-14T14:32:29.768Z,125
2016-08-14T14:33:29.794Z,125
2016-08-14T14:34:29.829Z,125
2016-08-14T14:35:29.861Z,125
2016-08-14T14:36:29.886Z,125
2016-08-14T14:37:44.839Z,125
2016-08-14T14:38:29.953Z,125
2016-08-14T14:39:30.024Z,125
2016-08-14T14:41:30.037Z,125